createdAt,value
2023-04-16T00:01:05.631Z,19.57
2023-04-16T00:03:33.747Z,19.77
2023-04-16T00:06:01.745Z,20.80
2023-04-16T00:08:29.463Z,20.60
2023-04-16T00:10:57.259Z,20.10
2023-04-16T00:13:26.801Z,20.87
2023-04-16T00:15:54.535Z,19.40
2023-04-16T00:21:09.205Z,20.43
2023-04-16T00:23:37.372Z,19.37
2023-04-16T00:26:05.626Z,19.83
2023-04-16T00:28:33.715Z,19.63
2023-04-16T00:31:02.257Z,19.27
2023-04-16T00:33:30.149Z,20.73
2023-04-16T00:35:58.226Z,20.73
2023-04-16T00:38:29.550Z,21.07
2023-04-16T00:40:58.070Z,19.63
2023-04-16T00:43:27.028Z,20.93
2023-04-16T00:45:57.954Z,19.60
2023-04-16T00:48:27.395Z,21.83
2023-04-16T00:50:55.415Z,21.40
2023-04-16T00:53:23.385Z,21.30
2023-04-16T00:55:51.841Z,20.67
2023-04-16T00:58:20.810Z,22.37
2023-04-16T01:00:48.548Z,21.33
2023-04-16T01:03:16.861Z,22.70
2023-04-16T01:05:48.513Z,21.20
2023-04-16T01:08:18.033Z,22.17
2023-04-16T01:10:46.234Z,21.07
2023-04-16T01:13:14.136Z,22.20
2023-04-16T01:15:41.907Z,22.43
2023-04-16T01:18:15.501Z,22.00
2023-04-16T01:20:43.401Z,21.40
2023-04-16T01:23:11.484Z,20.47
2023-04-16T01:25:39.302Z,21.47
2023-04-16T01:28:07.324Z,22.90
2023-04-16T01:30:35.266Z,21.53
2023-04-16T01:33:03.141Z,22.07
2023-04-16T01:35:30.959Z,23.37
2023-04-16T01:37:58.884Z,21.23
2023-04-16T01:40:26.733Z,23.40
2023-04-16T01:42:54.835Z,23.30
2023-04-16T01:45:23.035Z,23.77
2023-04-16T01:47:51.027Z,22.57
2023-04-16T01:50:20.217Z,24.50
2023-04-16T01:52:48.291Z,22.17
2023-04-16T01:55:16.098Z,22.73
2023-04-16T01:57:43.816Z,22.20
2023-04-16T02:00:12.537Z,22.90
2023-04-16T02:02:40.644Z,23.07
2023-04-16T02:05:09.091Z,22.83
2023-04-16T02:07:36.820Z,23.80
2023-04-16T02:10:07.412Z,23.63
2023-04-16T02:12:35.354Z,22.80
2023-04-16T02:15:04.295Z,22.97
2023-04-16T02:17:32.082Z,25.17
2023-04-16T02:20:02.256Z,23.27
2023-04-16T02:22:29.987Z,24.90
2023-04-16T02:24:57.808Z,24.67
2023-04-16T02:27:25.867Z,25.80
2023-04-16T02:29:53.683Z,23.97
2023-04-16T02:32:21.757Z,25.90
2023-04-16T02:34:49.489Z,25.10
2023-04-16T02:37:17.344Z,24.50
2023-04-16T02:39:46.836Z,23.87
2023-04-16T02:42:15.436Z,25.23
2023-04-16T02:44:43.168Z,24.47
2023-04-16T02:47:10.967Z,25.17
2023-04-16T02:49:38.772Z,25.27
2023-04-16T02:52:06.501Z,25.23
2023-04-16T02:54:34.230Z,25.07
2023-04-16T02:57:02.696Z,23.47
2023-04-16T02:59:30.515Z,26.63
2023-04-16T03:01:58.397Z,25.20
2023-04-16T03:04:26.266Z,26.97
2023-04-16T03:06:54.007Z,25.23
2023-04-16T03:09:21.783Z,26.03
2023-04-16T03:11:49.535Z,24.77
2023-04-16T03:14:17.390Z,26.23
2023-04-16T03:16:45.369Z,25.30
2023-04-16T03:19:13.276Z,26.10
2023-04-16T03:21:41.044Z,24.50
2023-04-16T03:24:08.857Z,25.73
2023-04-16T03:26:36.595Z,24.97
2023-04-16T03:29:07.176Z,24.80
2023-04-16T03:31:35.101Z,26.07
2023-04-16T03:34:02.959Z,26.03
2023-04-16T03:36:30.690Z,27.70
2023-04-16T03:38:58.429Z,25.60
2023-04-16T03:41:26.408Z,26.80
2023-04-16T03:43:54.176Z,25.43
2023-04-16T03:46:22.004Z,26.93
2023-04-16T03:48:49.801Z,25.67
2023-04-16T03:51:17.632Z,26.30
2023-04-16T03:53:45.354Z,26.17
2023-04-16T03:56:13.082Z,25.53
2023-04-16T03:58:40.804Z,24.43
2023-04-16T04:01:08.556Z,24.57
2023-04-16T04:03:37.482Z,24.77
2023-04-16T04:06:08.639Z,24.30
2023-04-16T04:08:36.438Z,24.50
2023-04-16T04:11:04.595Z,25.07
2023-04-16T04:13:32.272Z,25.00
2023-04-16T04:16:00.425Z,24.57
2023-04-16T04:18:28.184Z,25.77
2023-04-16T04:20:56.569Z,25.13
2023-04-16T04:23:24.435Z,26.70
2023-04-16T04:25:52.282Z,24.73
2023-04-16T04:28:20.033Z,26.30
2023-04-16T04:30:47.745Z,24.33
2023-04-16T04:33:15.500Z,24.40
2023-04-16T04:35:43.220Z,23.30
2023-04-16T04:38:12.037Z,26.03
2023-04-16T04:40:41.021Z,25.13
2023-04-16T04:43:08.787Z,25.33
2023-04-16T04:45:36.758Z,25.37
2023-04-16T04:48:05.250Z,25.60
2023-04-16T04:50:33.316Z,27.20
2023-04-16T04:53:01.007Z,25.23
2023-04-16T04:55:28.743Z,26.13
2023-04-16T04:57:56.436Z,25.00
2023-04-16T05:00:24.179Z,25.60
2023-04-16T05:05:39.111Z,25.00
2023-04-16T05:08:06.867Z,24.37
2023-04-16T05:10:34.859Z,26.10
2023-04-16T05:13:02.621Z,25.93
2023-04-16T05:15:30.493Z,26.30
2023-04-16T05:17:58.550Z,24.70
2023-04-16T05:20:28.475Z,26.37
2023-04-16T05:22:56.185Z,25.60
2023-04-16T05:25:24.158Z,24.87
2023-04-16T05:27:52.077Z,23.07
2023-04-16T05:30:20.339Z,24.97
2023-04-16T05:32:48.090Z,24.60
2023-04-16T05:35:17.543Z,25.33
2023-04-16T05:37:45.602Z,25.03
2023-04-16T05:40:14.232Z,24.53
2023-04-16T05:42:42.242Z,23.43
2023-04-16T05:45:12.101Z,23.77
2023-04-16T05:47:39.917Z,23.43
2023-04-16T05:50:10.300Z,23.73
2023-04-16T05:52:38.573Z,23.10
2023-04-16T05:55:07.872Z,23.90
2023-04-16T05:57:35.656Z,24.17
2023-04-16T06:00:04.681Z,24.17
2023-04-16T06:02:32.620Z,27.83
2023-04-16T06:05:00.705Z,26.17
2023-04-16T06:07:28.439Z,26.50
2023-04-16T06:09:56.176Z,25.47
2023-04-16T06:12:24.142Z,26.30
2023-04-16T06:14:51.864Z,24.93
2023-04-16T06:17:19.898Z,26.47
2023-04-16T06:19:47.848Z,25.47
2023-04-16T06:22:15.888Z,24.40
2023-04-16T06:24:43.835Z,23.83
2023-04-16T06:27:11.757Z,23.47
2023-04-16T06:29:41.726Z,23.37
2023-04-16T06:32:10.156Z,24.63
2023-04-16T06:34:38.505Z,24.13
2023-04-16T06:37:07.788Z,24.13
2023-04-16T06:39:37.186Z,25.40
2023-04-16T06:44:54.061Z,24.70
2023-04-16T06:47:22.874Z,25.40
2023-04-16T06:49:50.922Z,24.93
2023-04-16T06:52:18.801Z,24.87
2023-04-16T06:54:47.428Z,25.60
2023-04-16T06:57:15.794Z,23.53
2023-04-16T06:59:43.946Z,23.90
2023-04-16T07:02:11.889Z,23.93
2023-04-16T07:04:39.621Z,23.67
2023-04-16T07:07:08.085Z,24.50
2023-04-16T07:09:36.155Z,24.03
2023-04-16T07:12:04.365Z,22.67
2023-04-16T07:14:31.904Z,23.20
2023-04-16T07:16:59.692Z,23.00
2023-04-16T07:19:31.697Z,25.17
2023-04-16T07:21:59.733Z,24.20
2023-04-16T07:24:27.565Z,24.87
2023-04-16T07:26:55.498Z,23.97
2023-04-16T07:29:23.395Z,25.50
2023-04-16T07:31:51.398Z,24.43
2023-04-16T07:34:19.254Z,23.63
2023-04-16T07:36:47.004Z,24.30
2023-04-16T07:39:14.967Z,23.10
2023-04-16T07:41:42.780Z,24.33
2023-04-16T07:44:10.566Z,23.50
2023-04-16T07:46:46.338Z,26.27
2023-04-16T07:49:15.689Z,24.67
2023-04-16T07:51:43.617Z,24.00
2023-04-16T07:54:11.387Z,24.07
2023-04-16T07:56:39.277Z,24.60
2023-04-16T07:59:21.128Z,25.97
2023-04-16T08:01:52.371Z,24.33
2023-04-16T08:04:24.012Z,25.03
2023-04-16T08:06:52.124Z,23.30
2023-04-16T08:09:21.752Z,24.67
2023-04-16T08:11:50.433Z,23.93
2023-04-16T08:14:18.477Z,25.03
2023-04-16T08:16:46.522Z,24.70
2023-04-16T08:19:14.292Z,24.03
2023-04-16T08:21:42.299Z,24.13
2023-04-16T08:24:10.321Z,24.37
2023-04-16T08:26:38.203Z,24.17
2023-04-16T08:29:06.165Z,24.33
2023-04-16T08:31:34.300Z,25.90
2023-04-16T08:34:02.039Z,23.47
2023-04-16T08:36:30.634Z,25.77
2023-04-16T08:38:58.504Z,23.83
2023-04-16T08:41:30.697Z,25.83
2023-04-16T08:44:00.443Z,23.00
2023-04-16T08:46:31.519Z,28.37
2023-04-16T08:49:00.531Z,22.40
2023-04-16T08:51:33.485Z,23.83
2023-04-16T08:54:04.740Z,22.67
2023-04-16T08:56:35.772Z,24.63
2023-04-16T08:59:04.955Z,22.90
2023-04-16T09:01:33.193Z,22.73
2023-04-16T09:04:02.542Z,21.10
2023-04-16T09:06:31.224Z,22.20
2023-04-16T09:09:02.916Z,22.13
2023-04-16T09:11:31.078Z,22.10
2023-04-16T09:13:59.986Z,21.73
2023-04-16T09:16:32.567Z,21.50
2023-04-16T09:19:00.445Z,19.80
2023-04-16T09:21:28.548Z,19.73
2023-04-16T09:23:56.925Z,20.00
2023-04-16T09:26:25.703Z,21.33
2023-04-16T09:28:53.498Z,19.87
2023-04-16T09:31:21.505Z,19.30
2023-04-16T09:34:03.336Z,18.67
2023-04-16T09:36:32.124Z,19.63
2023-04-16T09:39:03.369Z,18.23
2023-04-16T09:41:32.486Z,18.10
2023-04-16T09:44:01.611Z,16.17
2023-04-16T09:49:19.616Z,17.47
2023-04-16T09:51:50.266Z,16.53
2023-04-16T09:54:19.351Z,17.10
2023-04-16T09:56:47.794Z,15.47
2023-04-16T09:59:18.695Z,15.97
2023-04-16T10:01:46.618Z,16.13
2023-04-16T10:04:14.973Z,15.07
2023-04-16T10:06:42.781Z,14.50
2023-04-16T10:09:10.757Z,14.97
2023-04-16T10:11:40.416Z,16.40
2023-04-16T10:14:08.307Z,14.60
2023-04-16T10:16:39.337Z,15.83
2023-04-16T10:19:07.175Z,14.33
2023-04-16T10:21:35.053Z,14.70
2023-04-16T10:24:04.173Z,12.73
2023-04-16T10:26:33.046Z,13.60
2023-04-16T10:29:01.364Z,13.37
2023-04-16T10:31:30.249Z,14.47
2023-04-16T10:33:59.249Z,13.27
2023-04-16T10:36:27.224Z,13.83
2023-04-16T10:38:59.285Z,11.77
2023-04-16T10:41:27.606Z,13.17
2023-04-16T10:44:05.810Z,11.93
2023-04-16T10:46:38.191Z,16.77
2023-04-16T10:49:15.310Z,15.10
2023-04-16T10:54:30.623Z,15.57
2023-04-16T10:57:00.795Z,14.67
2023-04-16T10:59:34.231Z,15.40
2023-04-16T11:02:08.078Z,14.17
2023-04-16T11:04:37.810Z,14.53
2023-04-16T11:07:13.459Z,12.73
2023-04-16T11:12:44.027Z,12.30
2023-04-16T11:15:13.178Z,12.63
2023-04-16T11:17:43.688Z,12.47
2023-04-16T11:20:18.848Z,13.03
2023-04-16T11:22:48.972Z,13.43
2023-04-16T11:25:21.388Z,12.13
2023-04-16T11:30:37.331Z,13.80
2023-04-16T11:33:05.839Z,12.07
2023-04-16T11:35:34.055Z,13.07
2023-04-16T11:38:01.902Z,11.80
2023-04-16T11:40:50.517Z,14.33
2023-04-16T11:43:18.509Z,13.43
2023-04-16T11:45:57.563Z,13.60
2023-04-16T11:48:25.374Z,13.13
2023-04-16T11:50:57.494Z,13.80
2023-04-16T11:53:25.427Z,13.93
2023-04-16T11:55:53.214Z,13.17
2023-04-16T11:58:22.983Z,13.20
2023-04-16T12:00:52.785Z,12.97
2023-04-16T12:03:38.919Z,12.63
2023-04-16T12:06:10.151Z,11.97
2023-04-16T12:08:37.938Z,12.60
2023-04-16T12:11:06.054Z,12.40
2023-04-16T12:13:39.176Z,13.57
2023-04-16T12:16:20.220Z,12.83
2023-04-16T12:19:02.329Z,12.70
2023-04-16T12:21:38.126Z,13.70
2023-04-16T12:24:08.204Z,12.37
2023-04-16T12:26:41.968Z,13.67
2023-04-16T12:29:20.924Z,12.97
2023-04-16T12:31:49.974Z,12.87
2023-04-16T12:34:18.703Z,12.47
2023-04-16T12:36:47.578Z,12.73
2023-04-16T12:39:16.452Z,11.60
2023-04-16T12:41:44.941Z,12.97
2023-04-16T12:44:17.205Z,13.03
2023-04-16T12:46:45.731Z,13.03
2023-04-16T12:49:13.739Z,12.53
2023-04-16T12:51:41.567Z,13.57
2023-04-16T12:54:09.310Z,13.60
2023-04-16T12:56:37.134Z,14.87
2023-04-16T12:59:05.157Z,13.17
2023-04-16T13:01:35.489Z,14.57
2023-04-16T13:04:03.956Z,13.33
2023-04-16T13:09:20.740Z,12.37
2023-04-16T13:11:48.536Z,13.00
2023-04-16T13:14:16.362Z,12.93
2023-04-16T13:16:44.204Z,12.93
2023-04-16T13:19:12.394Z,12.63
2023-04-16T13:21:40.496Z,14.80
2023-04-16T13:24:08.704Z,12.90
2023-04-16T13:26:36.561Z,13.53
2023-04-16T13:29:04.395Z,12.67
2023-04-16T13:31:32.341Z,13.60
2023-04-16T13:34:00.183Z,10.83
2023-04-16T13:36:29.422Z,12.83
2023-04-16T13:38:57.206Z,11.97
2023-04-16T13:41:25.108Z,12.40
2023-04-16T13:43:53.761Z,11.40
2023-04-16T13:46:21.568Z,11.57
2023-04-16T13:48:49.540Z,11.60
2023-04-16T13:51:17.555Z,10.83
2023-04-16T13:53:45.846Z,11.07
2023-04-16T13:56:13.620Z,11.30
2023-04-16T13:58:41.702Z,11.40
2023-04-16T14:01:10.354Z,11.67
2023-04-16T14:03:40.369Z,12.90
2023-04-16T14:06:08.418Z,11.33
2023-04-16T14:08:37.536Z,12.30
2023-04-16T14:11:05.750Z,10.83
2023-04-16T14:13:33.711Z,13.47
2023-04-16T14:16:01.910Z,11.40
2023-04-16T14:18:30.062Z,12.17
2023-04-16T14:21:01.377Z,11.33
2023-04-16T14:23:29.287Z,12.97
2023-04-16T14:25:57.088Z,10.33
2023-04-16T14:28:24.853Z,11.83
2023-04-16T14:30:52.690Z,11.27
2023-04-16T14:33:20.704Z,10.40
2023-04-16T14:35:49.761Z,10.30
2023-04-16T14:38:17.720Z,10.43
2023-04-16T14:40:45.555Z,10.47
2023-04-16T14:43:13.369Z,9.93
2023-04-16T14:45:41.331Z,9.97
2023-04-16T14:48:09.172Z,9.80
2023-04-16T14:50:38.303Z,11.13
2023-04-16T14:53:06.111Z,9.63
2023-04-16T14:55:34.000Z,10.80
2023-04-16T14:58:01.746Z,10.10
2023-04-16T15:00:29.588Z,10.00
2023-04-16T15:02:58.200Z,10.00
2023-04-16T15:05:26.717Z,9.80
2023-04-16T15:07:54.798Z,9.03
2023-04-16T15:10:22.986Z,9.93
2023-04-16T15:12:50.916Z,9.43
2023-04-16T15:15:18.855Z,8.87
2023-04-16T15:17:47.282Z,9.40
2023-04-16T15:20:16.167Z,9.77
2023-04-16T15:22:44.112Z,9.67
2023-04-16T15:25:12.130Z,9.40
2023-04-16T15:27:40.007Z,8.83
2023-04-16T15:30:10.660Z,8.40
2023-04-16T15:32:38.558Z,10.57
2023-04-16T15:35:09.797Z,9.03
2023-04-16T15:37:39.089Z,10.73
2023-04-16T15:40:08.966Z,8.90
2023-04-16T15:42:36.963Z,10.67
2023-04-16T15:45:06.306Z,9.50
2023-04-16T15:47:35.767Z,9.60
2023-04-16T15:50:04.511Z,9.87
2023-04-16T15:52:32.402Z,10.27
2023-04-16T15:55:02.280Z,9.33
2023-04-16T15:57:31.752Z,9.97
2023-04-16T16:00:07.073Z,8.87
2023-04-16T16:02:37.471Z,10.20
2023-04-16T16:05:06.949Z,8.40
2023-04-16T16:07:34.920Z,10.00
2023-04-16T16:10:03.995Z,8.77
2023-04-16T16:12:32.440Z,10.87
2023-04-16T16:15:01.644Z,9.27
2023-04-16T16:17:29.868Z,9.83
2023-04-16T16:19:59.015Z,9.03
2023-04-16T16:22:27.134Z,10.10
2023-04-16T16:24:56.883Z,9.53
2023-04-16T16:27:25.019Z,10.47
2023-04-16T16:29:53.092Z,9.10
2023-04-16T16:32:21.259Z,10.30
2023-04-16T16:34:49.260Z,9.10
2023-04-16T16:37:17.373Z,9.73
2023-04-16T16:39:45.304Z,8.87
2023-04-16T16:42:17.841Z,9.57
2023-04-16T16:44:47.105Z,9.03
2023-04-16T16:47:14.973Z,9.13
2023-04-16T16:49:43.395Z,8.33
2023-04-16T16:52:11.324Z,9.20
2023-04-16T16:54:39.545Z,9.90
2023-04-16T16:57:08.188Z,8.87
2023-04-16T16:59:36.254Z,10.00
2023-04-16T17:02:04.146Z,9.70
2023-04-16T17:04:32.143Z,9.87
2023-04-16T17:07:00.483Z,9.20
2023-04-16T17:09:28.506Z,9.77
2023-04-16T17:11:56.884Z,9.83
2023-04-16T17:14:25.113Z,9.40
2023-04-16T17:16:53.240Z,10.30
2023-04-16T17:19:21.224Z,9.73
2023-04-16T17:21:49.880Z,9.17
2023-04-16T17:24:17.882Z,9.40
2023-04-16T17:26:45.824Z,10.33
2023-04-16T17:29:13.681Z,9.63
2023-04-16T17:31:41.692Z,10.77
2023-04-16T17:34:10.397Z,9.47
2023-04-16T17:36:38.773Z,10.17
2023-04-16T17:39:06.650Z,10.07
2023-04-16T17:41:34.632Z,10.87
2023-04-16T17:44:02.640Z,9.97
2023-04-16T17:46:30.832Z,11.63
2023-04-16T17:48:58.947Z,9.73
2023-04-16T17:51:27.718Z,10.70
2023-04-16T17:53:55.962Z,9.60
2023-04-16T17:56:24.293Z,9.93
2023-04-16T17:58:52.140Z,10.03
2023-04-16T18:01:20.408Z,9.63
2023-04-16T18:03:48.425Z,9.60
2023-04-16T18:06:16.366Z,9.90
2023-04-16T18:08:44.347Z,10.83
2023-04-16T18:11:12.535Z,10.10
2023-04-16T18:13:40.401Z,11.00
2023-04-16T18:16:15.753Z,10.03
2023-04-16T18:18:44.120Z,10.73
2023-04-16T18:21:12.250Z,9.60
2023-04-16T18:23:40.419Z,11.57
2023-04-16T18:26:09.347Z,10.50
2023-04-16T18:28:38.452Z,11.27
2023-04-16T18:31:07.167Z,11.00
2023-04-16T18:33:54.107Z,12.43
2023-04-16T18:36:24.039Z,10.90
2023-04-16T18:39:00.948Z,10.73
2023-04-16T18:41:30.625Z,10.70
2023-04-16T18:43:58.732Z,10.17
2023-04-16T18:46:27.801Z,10.27
2023-04-16T18:48:56.001Z,9.57
2023-04-16T18:51:24.219Z,10.67
2023-04-16T18:53:52.454Z,11.10
2023-04-16T18:56:21.040Z,10.70
2023-04-16T18:58:49.124Z,10.57
2023-04-16T19:01:17.217Z,10.80
2023-04-16T19:03:45.485Z,11.40
2023-04-16T19:06:13.673Z,10.57
2023-04-16T19:08:41.709Z,11.37
2023-04-16T19:11:09.926Z,10.43
2023-04-16T19:13:38.554Z,12.10
2023-04-16T19:16:10.440Z,11.23
2023-04-16T19:18:39.534Z,12.07
2023-04-16T19:21:09.342Z,10.27
2023-04-16T19:23:37.303Z,11.30
2023-04-16T19:26:05.599Z,11.80
2023-04-16T19:28:33.644Z,11.40
2023-04-16T19:31:01.854Z,11.87
2023-04-16T19:33:30.599Z,12.97
2023-04-16T19:35:59.692Z,11.60
2023-04-16T19:38:27.886Z,12.27
2023-04-16T19:40:56.081Z,11.97
2023-04-16T19:43:24.676Z,12.33
2023-04-16T19:45:54.109Z,12.17
2023-04-16T19:48:22.363Z,11.93
2023-04-16T19:50:50.549Z,11.83
2023-04-16T19:53:18.605Z,11.90
2023-04-16T19:55:46.519Z,13.20
2023-04-16T19:58:14.738Z,11.30
2023-04-16T20:00:43.614Z,13.63
2023-04-16T20:03:11.651Z,12.47
2023-04-16T20:05:39.519Z,13.30
2023-04-16T20:08:08.341Z,11.90
2023-04-16T20:10:36.300Z,13.23
2023-04-16T20:13:05.916Z,12.50
2023-04-16T20:15:33.808Z,13.90
2023-04-16T20:18:01.856Z,12.63
2023-04-16T20:20:30.025Z,13.97
2023-04-16T20:22:58.981Z,13.17
2023-04-16T20:25:28.516Z,13.83
2023-04-16T20:27:56.540Z,12.77
2023-04-16T20:30:28.610Z,12.53
2023-04-16T20:35:44.906Z,13.23
2023-04-16T20:38:13.079Z,13.53
2023-04-16T20:40:41.268Z,15.03
2023-04-16T20:43:09.552Z,13.23
2023-04-16T20:45:37.821Z,14.43
2023-04-16T20:48:06.675Z,13.43
2023-04-16T20:50:34.499Z,14.50
2023-04-16T20:53:02.819Z,14.00
2023-04-16T20:55:30.885Z,14.80
2023-04-16T20:57:58.929Z,13.93
2023-04-16T21:00:26.930Z,13.60
2023-04-16T21:02:55.090Z,12.93
2023-04-16T21:05:25.827Z,13.57
2023-04-16T21:07:55.414Z,14.37
2023-04-16T21:10:23.865Z,13.93
2023-04-16T21:12:51.778Z,13.00
2023-04-16T21:15:19.538Z,13.70
2023-04-16T21:17:47.342Z,13.90
2023-04-16T21:23:03.383Z,13.70
2023-04-16T21:25:31.394Z,14.43
2023-04-16T21:27:59.351Z,14.40
2023-04-16T21:30:27.117Z,15.43
2023-04-16T21:32:55.220Z,13.60
2023-04-16T21:35:23.106Z,14.10
2023-04-16T21:37:50.856Z,12.90
2023-04-16T21:40:18.879Z,13.67
2023-04-16T21:42:46.843Z,14.70
2023-04-16T21:45:14.898Z,13.13
2023-04-16T21:47:43.041Z,15.70
2023-04-16T21:50:12.998Z,13.50
2023-04-16T21:52:46.024Z,14.93
2023-04-16T21:55:14.167Z,13.23
2023-04-16T21:57:41.970Z,15.33
2023-04-16T22:00:13.381Z,13.90
2023-04-16T22:02:42.525Z,15.33
2023-04-16T22:05:11.481Z,13.73
2023-04-16T22:07:39.851Z,15.60
2023-04-16T22:10:09.823Z,13.23
2023-04-16T22:12:38.873Z,14.57
2023-04-16T22:15:09.798Z,13.77
2023-04-16T22:17:37.969Z,15.83
2023-04-16T22:20:11.034Z,13.77
2023-04-16T22:22:39.260Z,14.90
2023-04-16T22:25:09.038Z,13.73
2023-04-16T22:27:37.291Z,15.27
2023-04-16T22:30:07.640Z,14.50
2023-04-16T22:32:35.792Z,15.37
2023-04-16T22:35:05.195Z,14.40
2023-04-16T22:37:33.206Z,14.80
2023-04-16T22:40:01.264Z,13.90
2023-04-16T22:42:29.662Z,15.23
2023-04-16T22:44:57.600Z,13.63
2023-04-16T22:47:25.573Z,14.13
2023-04-16T22:49:53.791Z,15.17
2023-04-16T22:52:21.530Z,13.20
2023-04-16T22:54:49.290Z,14.20
2023-04-16T22:57:20.399Z,14.50
2023-04-16T22:59:48.120Z,15.53
2023-04-16T23:02:16.114Z,14.87
2023-04-16T23:04:43.984Z,15.43
2023-04-16T23:07:11.693Z,14.53
2023-04-16T23:09:39.450Z,16.13
2023-04-16T23:12:07.911Z,15.57
2023-04-16T23:14:36.496Z,16.20
2023-04-16T23:17:04.308Z,14.27
2023-04-16T23:19:32.027Z,16.33
2023-04-16T23:21:59.825Z,15.53
2023-04-16T23:24:27.645Z,15.27
2023-04-16T23:26:55.726Z,15.97
2023-04-16T23:29:23.532Z,15.63
2023-04-16T23:31:51.517Z,15.87
2023-04-16T23:34:19.426Z,16.20
2023-04-16T23:36:47.172Z,16.37
2023-04-16T23:39:14.882Z,16.33
2023-04-16T23:41:42.651Z,17.60
2023-04-16T23:44:11.237Z,15.93
2023-04-16T23:46:40.225Z,16.90
2023-04-16T23:49:08.190Z,16.33
2023-04-16T23:51:36.373Z,17.27
2023-04-16T23:54:04.698Z,16.43
2023-04-16T23:56:32.470Z,17.60
2023-04-16T23:59:00.167Z,15.67
